createdAt,value
2022-10-18T00:01:18.731Z,15.83
2022-10-18T00:06:22.006Z,15.75
2022-10-18T00:11:25.560Z,15.70
2022-10-18T00:16:29.071Z,15.67
2022-10-18T00:21:32.704Z,15.64
2022-10-18T00:26:36.536Z,15.61
2022-10-18T00:31:39.937Z,15.60
2022-10-18T00:36:44.458Z,15.61
2022-10-18T00:41:49.058Z,15.59
2022-10-18T00:46:58.252Z,15.56
2022-10-18T00:52:18.166Z,15.46
2022-10-18T00:57:21.949Z,15.36
2022-10-18T01:02:26.764Z,15.27
2022-10-18T01:07:41.999Z,15.26
2022-10-18T01:13:15.647Z,15.12
2022-10-18T01:18:52.142Z,14.96
2022-10-18T01:24:18.755Z,14.91
2022-10-18T01:29:52.426Z,14.99
2022-10-18T01:35:11.710Z,15.07
2022-10-18T01:40:20.852Z,15.15
2022-10-18T01:45:26.772Z,15.13
2022-10-18T01:50:33.825Z,15.03
2022-10-18T01:55:57.830Z,14.96
2022-10-18T02:06:29.782Z,14.96
2022-10-18T02:11:36.225Z,14.93
2022-10-18T02:16:45.678Z,14.93
2022-10-18T02:21:52.123Z,14.92
2022-10-18T02:26:55.577Z,14.91
2022-10-18T02:32:20.366Z,14.79
2022-10-18T02:42:46.985Z,14.67
2022-10-18T02:47:50.295Z,14.65
2022-10-18T02:52:53.550Z,14.68
2022-10-18T02:57:56.817Z,14.71
2022-10-18T03:03:00.130Z,14.73
2022-10-18T03:08:03.852Z,14.72
2022-10-18T03:13:07.058Z,14.66
2022-10-18T03:18:10.930Z,14.58
2022-10-18T03:23:14.191Z,14.54
2022-10-18T03:28:17.446Z,14.49
2022-10-18T03:33:21.053Z,14.50
2022-10-18T03:38:24.447Z,14.50
2022-10-18T03:43:27.745Z,14.47
2022-10-18T03:48:31.190Z,14.39
2022-10-18T03:53:34.608Z,14.35
2022-10-18T03:58:37.894Z,14.39
2022-10-18T04:03:41.196Z,14.39
2022-10-18T04:08:44.620Z,14.40
2022-10-18T04:13:47.951Z,14.41
2022-10-18T04:18:51.234Z,14.40
2022-10-18T04:23:54.549Z,14.40
2022-10-18T04:28:58.082Z,14.42
2022-10-18T04:34:02.706Z,14.50
2022-10-18T04:39:06.324Z,14.58
2022-10-18T04:44:10.056Z,14.64
2022-10-18T04:49:13.466Z,14.60
2022-10-18T04:54:16.882Z,14.60
2022-10-18T04:59:20.881Z,14.63
2022-10-18T05:04:24.322Z,14.58
2022-10-18T05:09:27.831Z,14.54
2022-10-18T05:14:31.148Z,14.56
2022-10-18T05:19:34.867Z,14.69
2022-10-18T05:24:38.281Z,14.80
2022-10-18T05:29:41.799Z,14.88
2022-10-18T05:34:45.138Z,15.06
2022-10-18T05:39:48.489Z,15.05
2022-10-18T05:44:51.742Z,15.05
2022-10-18T05:49:55.346Z,14.96
2022-10-18T05:54:59.273Z,14.89
2022-10-18T06:00:03.096Z,14.89
2022-10-18T06:05:06.613Z,14.87
2022-10-18T06:10:10.864Z,14.88
2022-10-18T06:15:14.464Z,14.84
2022-10-18T06:20:18.119Z,14.88
2022-10-18T06:25:21.396Z,14.98
2022-10-18T06:30:24.979Z,15.05
2022-10-18T06:35:28.987Z,15.07
2022-10-18T06:40:38.193Z,15.10
2022-10-18T06:45:41.609Z,15.10
2022-10-18T06:51:02.020Z,15.20
2022-10-18T06:56:10.612Z,15.23
2022-10-18T07:01:17.001Z,15.28
2022-10-18T07:06:21.123Z,15.30
2022-10-18T07:11:27.551Z,15.39
2022-10-18T07:16:35.065Z,15.51
2022-10-18T07:21:38.478Z,15.56
2022-10-18T07:26:42.770Z,15.52
2022-10-18T07:31:46.029Z,15.50
2022-10-18T07:36:49.449Z,15.51
2022-10-18T07:41:52.860Z,15.53
2022-10-18T07:46:56.123Z,15.51
2022-10-18T07:51:59.496Z,15.47
2022-10-18T07:57:05.343Z,15.47
2022-10-18T08:02:09.798Z,15.47
2022-10-18T08:07:13.610Z,15.46
2022-10-18T08:12:16.915Z,15.43
2022-10-18T08:17:20.230Z,15.42
2022-10-18T08:22:23.638Z,15.43
2022-10-18T08:27:27.065Z,15.48
2022-10-18T08:32:30.674Z,15.55
2022-10-18T08:37:34.881Z,15.63
2022-10-18T08:43:06.068Z,15.70
2022-10-18T08:48:25.947Z,15.84
2022-10-18T08:54:56.718Z,15.88
2022-10-18T09:00:06.493Z,15.97
2022-10-18T09:05:56.817Z,15.99
2022-10-18T09:11:19.063Z,15.91
2022-10-18T09:17:06.405Z,15.83
2022-10-18T09:22:20.676Z,15.88
2022-10-18T09:27:38.291Z,15.96
2022-10-18T09:33:19.836Z,16.07
2022-10-18T09:38:31.073Z,16.19
2022-10-18T09:43:50.112Z,16.19
2022-10-18T09:49:14.286Z,16.10
2022-10-18T09:54:48.441Z,16.06
2022-10-18T09:59:51.959Z,16.12
2022-10-18T10:04:55.990Z,16.17
2022-10-18T10:10:20.351Z,16.19
2022-10-18T10:15:31.289Z,16.16
2022-10-18T10:20:50.583Z,16.19
2022-10-18T10:26:01.481Z,16.28
2022-10-18T10:31:25.070Z,16.28
2022-10-18T10:36:29.857Z,16.20
2022-10-18T10:41:34.415Z,16.20
2022-10-18T10:46:37.867Z,16.14
2022-10-18T10:51:41.461Z,16.05
2022-10-18T10:57:19.303Z,16.05
2022-10-18T11:02:34.368Z,16.09
2022-10-18T11:07:46.756Z,16.10
2022-10-18T11:13:02.908Z,16.12
2022-10-18T11:18:30.510Z,16.12
2022-10-18T11:23:38.749Z,16.13
2022-10-18T11:29:29.112Z,16.11
2022-10-18T11:35:03.174Z,16.09
2022-10-18T11:41:09.188Z,16.05
2022-10-18T11:46:44.738Z,16.02
2022-10-18T11:52:08.012Z,16.04
2022-10-18T11:57:40.307Z,16.06
2022-10-18T12:03:08.639Z,16.11
2022-10-18T12:08:19.473Z,16.19
2022-10-18T12:14:07.753Z,16.22
2022-10-18T12:19:27.631Z,16.24
2022-10-18T12:24:34.617Z,16.28
2022-10-18T12:29:52.723Z,16.29
2022-10-18T12:35:15.571Z,16.26
2022-10-18T12:40:43.037Z,16.21
2022-10-18T12:46:02.761Z,16.18
2022-10-18T12:51:19.462Z,16.14
2022-10-18T12:56:28.613Z,16.12
2022-10-18T13:01:52.174Z,16.13
2022-10-18T13:06:58.588Z,16.14
2022-10-18T13:12:10.836Z,16.15
2022-10-18T13:17:45.498Z,16.16
2022-10-18T13:23:23.782Z,16.12
2022-10-18T13:28:36.049Z,16.09
2022-10-18T13:33:42.083Z,16.02
2022-10-18T13:38:58.448Z,15.95
2022-10-18T13:44:24.159Z,15.94
2022-10-18T13:49:39.223Z,15.87
2022-10-18T13:55:39.258Z,15.81
2022-10-18T14:01:14.681Z,15.76
2022-10-18T14:06:29.293Z,15.71
2022-10-18T14:11:46.352Z,15.67
2022-10-18T14:17:15.413Z,15.65
2022-10-18T14:22:47.036Z,15.66
2022-10-18T14:28:12.229Z,15.61
2022-10-18T14:33:37.270Z,15.54
2022-10-18T14:39:02.938Z,15.51
2022-10-18T14:44:19.628Z,15.57
2022-10-18T14:49:23.110Z,15.46
2022-10-18T14:54:33.067Z,15.37
2022-10-18T14:59:53.942Z,15.32
2022-10-18T15:05:31.145Z,15.22
2022-10-18T15:10:36.050Z,15.19
2022-10-18T15:15:40.950Z,15.18
2022-10-18T15:20:44.565Z,15.14
2022-10-18T15:25:48.283Z,15.12
2022-10-18T15:30:51.915Z,15.10
2022-10-18T15:35:55.519Z,15.06
2022-10-18T15:40:59.187Z,15.04
2022-10-18T15:46:06.803Z,15.05
2022-10-18T15:51:48.231Z,14.98
2022-10-18T15:56:51.564Z,14.97
2022-10-18T16:01:55.678Z,14.95
2022-10-18T16:07:00.522Z,14.96
2022-10-18T16:12:05.839Z,14.94
2022-10-18T16:17:17.612Z,14.91
2022-10-18T16:22:20.914Z,14.88
2022-10-18T16:27:25.289Z,14.88
2022-10-18T16:32:28.642Z,14.84
2022-10-18T16:37:31.992Z,14.77
2022-10-18T16:42:35.553Z,14.70
2022-10-18T16:47:39.047Z,14.62
2022-10-18T16:52:43.314Z,14.55
2022-10-18T16:57:47.144Z,14.51
2022-10-18T17:02:51.007Z,14.46
2022-10-18T17:07:54.360Z,14.41
2022-10-18T17:12:57.726Z,14.38
2022-10-18T17:18:01.447Z,14.39
2022-10-18T17:23:04.863Z,14.35
2022-10-18T17:28:08.380Z,14.29
2022-10-18T17:33:13.274Z,14.23
2022-10-18T17:38:16.637Z,14.21
2022-10-18T17:43:20.232Z,14.19
2022-10-18T17:48:24.804Z,14.16
2022-10-18T17:53:29.401Z,14.09
2022-10-18T17:58:33.061Z,14.01
2022-10-18T18:03:36.560Z,14.00
2022-10-18T18:08:39.993Z,14.01
2022-10-18T18:13:43.508Z,13.99
2022-10-18T18:18:50.832Z,13.93
2022-10-18T18:23:54.843Z,13.84
2022-10-18T18:28:58.258Z,13.79
2022-10-18T18:34:02.256Z,13.76
2022-10-18T18:39:06.308Z,13.71
2022-10-18T18:44:09.713Z,13.65
2022-10-18T18:49:14.058Z,13.59
2022-10-18T18:54:17.473Z,13.50
2022-10-18T18:59:21.060Z,13.38
2022-10-18T19:04:24.305Z,13.27
2022-10-18T19:09:28.243Z,13.21
2022-10-18T19:14:31.591Z,13.22
2022-10-18T19:19:34.951Z,13.20
2022-10-18T19:24:38.365Z,13.12
2022-10-18T19:29:42.291Z,13.01
2022-10-18T19:34:45.702Z,12.91
2022-10-18T19:39:49.224Z,12.83
2022-10-18T19:44:52.841Z,12.73
2022-10-18T19:49:56.464Z,12.61
2022-10-18T19:54:59.771Z,12.51
2022-10-18T20:00:08.118Z,12.39
2022-10-18T20:05:14.078Z,12.27
2022-10-18T20:10:17.629Z,12.16
2022-10-18T20:15:20.933Z,12.07
2022-10-18T20:20:24.314Z,11.98
2022-10-18T20:25:27.628Z,11.90
2022-10-18T20:30:31.038Z,11.81
2022-10-18T20:35:34.304Z,11.71
2022-10-18T20:40:37.670Z,11.65
2022-10-18T20:45:40.980Z,11.61
2022-10-18T20:50:44.391Z,11.61
2022-10-18T20:55:47.707Z,11.58
2022-10-18T21:00:50.930Z,11.54
2022-10-18T21:05:54.257Z,11.52
2022-10-18T21:11:01.577Z,11.51
2022-10-18T21:16:07.570Z,11.52
2022-10-18T21:21:16.683Z,11.56
2022-10-18T21:26:24.517Z,11.59
2022-10-18T21:31:31.573Z,11.59
2022-10-18T21:36:37.544Z,11.60
2022-10-18T21:41:41.680Z,11.59
2022-10-18T21:46:45.360Z,11.59
2022-10-18T21:51:48.640Z,11.61
2022-10-18T21:56:52.022Z,11.65
2022-10-18T22:01:55.324Z,11.69
2022-10-18T22:06:59.756Z,11.72
2022-10-18T22:12:03.807Z,11.74
2022-10-18T22:17:07.100Z,11.76
2022-10-18T22:22:10.838Z,11.78
2022-10-18T22:27:14.243Z,11.78
2022-10-18T22:32:17.473Z,11.81
2022-10-18T22:37:20.757Z,11.82
2022-10-18T22:42:24.044Z,11.81
2022-10-18T22:47:27.482Z,11.76
2022-10-18T22:52:30.784Z,11.62
2022-10-18T22:57:34.315Z,11.52
2022-10-18T23:02:37.623Z,11.47
2022-10-18T23:07:40.933Z,11.46
2022-10-18T23:12:44.377Z,11.44
2022-10-18T23:17:50.137Z,11.43
2022-10-18T23:22:53.779Z,11.40
2022-10-18T23:27:57.880Z,11.36
2022-10-18T23:33:01.189Z,11.29
2022-10-18T23:38:04.494Z,11.22
2022-10-18T23:43:07.805Z,11.19
2022-10-18T23:48:11.317Z,11.15
2022-10-18T23:53:14.768Z,11.10
2022-10-18T23:58:18.061Z,11.10
